Flight Track Log - Related Links

Times and Time Zones

All times are in EDT time to prevent confusion due to time zone crossing. See the N860BA flight status page for this flight to view local times or setup timezone preferences in your user account.

Time Position Orientation Groundspeed Altitude Reporting Facility
EDT Latitude Longitude Course Direction KTS MPH feet Rate Location/Type
Thu 08:30:04 AM 29.6311 -95.2656 163° South 155 178 600  Level Houston Center
Thu 08:31:10 AM 29.5797 -95.2469 163° South 222 255 2,800 2,780 Climbing Houston Center
Thu 08:32:07 AM 29.5131 -95.2367 172° South 236 272 6,300 3,356 Climbing Houston Center
Thu 08:33:08 AM 29.4644 -95.2808 218° Southwest 234 269 9,400 2,813 Climbing Houston Center
Thu 08:34:15 AM 29.4189 -95.3458 231° Southwest 233 268 12,300 2,279 Climbing Houston Center
Thu 08:35:17 AM 29.3761 -95.4083 232° Southwest 243 280 14,300 1,756 Climbing Houston Center
Thu 08:36:18 AM 29.3294 -95.4783 233° Southwest 270 311 15,900 780 Climbing Houston Center
Thu 08:37:20 AM 29.2772 -95.5544 232° Southwest 298 343 15,900  Level Houston Center
Thu 08:38:21 AM 29.2172 -95.6353 230° Southwest 327 376 15,900  Level Houston Center
Thu 08:39:23 AM 29.1514 -95.7217 229° Southwest 353 406 15,900  Level Houston Center
Thu 08:40:25 AM 29.0850 -95.8111 230° Southwest 366 421 15,900  Level Houston Center
Thu 08:41:26 AM 29.0011 -95.9208 229° Southwest 380 437 15,900  Level Houston Center
Thu 08:42:28 AM 28.9372 -96.0056 229° Southwest 383 441 15,900  Level Houston Center
Thu 08:43:30 AM 28.8672 -96.0986 229° Southwest 385 443 15,900  Level Houston Center
Thu 08:44:31 AM 28.7969 -96.1911 229° Southwest 386 444 15,900  Level Houston Center
Thu 08:45:33 AM 28.7258 -96.2853 229° Southwest 388 447 15,900  Level Houston Center
Thu 08:46:35 AM 28.6419 -96.3944 229° Southwest 383 441 15,900  Level Houston Center
Thu 08:47:36 AM 28.5700 -96.4869 228° Southwest 388 447 15,900  Level Houston Center
Thu 08:48:38 AM 28.4992 -96.5808 229° Southwest 389 448 15,900 -629 Level Houston Center
Thu 08:49:40 AM 28.4269 -96.6764 229° Southwest 395 455 14,600 -1,355 Descending Houston Center
Thu 08:50:11 AM 28.3792 -96.7358 228° Southwest 414 476 13,800 -1,258 Descending Houston Center
Thu 08:50:42 AM 28.3500 -96.7758 230° Southwest 412 474 13,300 -1,164 Descending Houston Center
Thu 08:51:18 AM 28.2983 -96.8406 228° Southwest 427 491 12,500 -1,279 Descending Houston Center
Thu 08:51:43 AM 28.2719 -96.8758 230° Southwest 421 484 12,000 -1,400 Descending Houston Center
Thu 08:52:18 AM 28.2303 -96.9478 237° Southwest 379 436 11,100 -1,258 Descending Houston Center
Thu 08:52:45 AM 28.2158 -96.9753 239° Southwest 381 438 10,700 -1,377 Descending Houston Center
Thu 08:53:19 AM 28.1817 -97.0403 239° Southwest 306 352 9,700 -1,355 Descending Houston Center
Thu 08:53:47 AM 28.1708 -97.0603 238° Southwest 332 382 9,300 -1,200 Descending Houston Center
Thu 08:54:19 AM 28.1439 -97.1167 242° Southwest 278 320 8,500 -1,452 Descending Houston Center
Thu 08:54:49 AM 28.1253 -97.1544 241° Southwest 292 336 7,800 -1,309 Descending Houston Center
Thu 08:55:14 AM 28.1094 -97.1858 240° Southwest 278 320 7,300 -1,180 Descending Houston Center
Thu 08:55:50 AM 28.0883 -97.2328 243° Southwest 282 325 6,600 -1,300 Descending Houston Center
Thu 08:56:14 AM 28.0725 -97.2692 244° Southwest 283 326 6,000 -1,355 Descending Houston Center
Thu 08:56:52 AM 28.0539 -97.3100 243° Southwest 279 321 5,200 -1,377 Descending Houston Center
Thu 08:57:15 AM 28.0389 -97.3475 246° West 265 305 4,600 -1,258 Descending Houston Center
Thu 08:57:54 AM 28.0231 -97.3839 244° Southwest 265 305 3,900 -1,180 Descending Houston Center
Thu 08:58:16 AM 28.0106 -97.4156 246° West 244 281 3,400 -871 Descending Houston Center
Thu 08:58:56 AM 27.9978 -97.4569 251° West 259 298 3,000 -400 Descending Houston Center
Thu 08:59:16 AM 27.9842 -97.4831 239° Southwest 228 262 3,000  Level Houston Center
Thu 08:59:58 AM 27.9742 -97.5206 253° West 244 281 3,000  Level Houston Center
Thu 09:00:17 AM 27.9608 -97.5408 233° Southwest 200 230 3,000 -98 Level Houston Center
Thu 09:00:59 AM 27.9511 -97.5833 255° West 225 259 2,900  Descending Houston Center
Thu 09:01:18 AM 27.9397 -97.5981 229° Southwest 192 221 3,000 -95 Climbing Houston Center
Thu 09:02:02 AM 27.9217 -97.6292 237° Southwest 205 236 2,800 -909 Descending Houston Center
Thu 09:02:24 AM 27.9017 -97.6342 192° South 177 204 2,000 -506 Descending Houston Center
Thu 09:03:25 AM 27.8628 -97.6064 148° Southeast 173 199 2,100 -198 Climbing Houston Center
Thu 09:04:25 AM 27.8344 -97.5769 137° Southeast 123 142 1,600 -496 Descending Houston Center
Thu 09:05:26 AM 27.8131 -97.5539 136° Southeast 100 115 1,100 -590 Descending Houston Center
Thu 09:06:27 AM 27.7869 -97.5267 137° Southeast 119 137 400 -689 Descending Houston Center

Login

Don't have an account? Register now (free) for customized features, flight alerts, and more!